sensor_id;sensor_type;location;lat;lon;timestamp;P1;durP1;ratioP1;P2;durP2;ratioP2
31182;SDS011;17813;0.000;0.000;2023-06-04T00:00:36;5.43;;;3.27;;
31182;SDS011;17813;0.000;0.000;2023-06-04T00:03:08;4.03;;;3.40;;
31182;SDS011;17813;0.000;0.000;2023-06-04T00:05:38;3.60;;;3.30;;
31182;SDS011;17813;0.000;0.000;2023-06-04T00:08:11;3.50;;;3.20;;
31182;SDS011;17813;0.000;0.000;2023-06-04T00:10:48;4.50;;;3.33;;
31182;SDS011;17813;0.000;0.000;2023-06-04T00:13:30;4.07;;;3.23;;
31182;SDS011;17813;0.000;0.000;2023-06-04T00:16:07;3.63;;;3.00;;
31182;SDS011;17813;0.000;0.000;2023-06-04T00:18:41;3.47;;;2.70;;
31182;SDS011;17813;0.000;0.000;2023-06-04T00:21:16;3.53;;;2.90;;
31182;SDS011;17813;0.000;0.000;2023-06-04T00:23:53;6.17;;;3.20;;
31182;SDS011;17813;0.000;0.000;2023-06-04T00:26:25;3.13;;;2.90;;
31182;SDS011;17813;0.000;0.000;2023-06-04T00:29:00;3.20;;;2.90;;
31182;SDS011;17813;0.000;0.000;2023-06-04T00:31:32;3.30;;;2.90;;
31182;SDS011;17813;0.000;0.000;2023-06-04T00:34:06;3.17;;;2.73;;
31182;SDS011;17813;0.000;0.000;2023-06-04T00:36:36;3.27;;;2.97;;
31182;SDS011;17813;0.000;0.000;2023-06-04T00:39:08;3.60;;;3.20;;
31182;SDS011;17813;0.000;0.000;2023-06-04T00:41:40;3.40;;;2.93;;
31182;SDS011;17813;0.000;0.000;2023-06-04T00:44:14;3.30;;;2.83;;
31182;SDS011;17813;0.000;0.000;2023-06-04T00:46:46;5.10;;;3.23;;
31182;SDS011;17813;0.000;0.000;2023-06-04T00:49:21;3.87;;;3.47;;
31182;SDS011;17813;0.000;0.000;2023-06-04T00:51:53;3.23;;;2.93;;
31182;SDS011;17813;0.000;0.000;2023-06-04T00:54:24;4.67;;;3.50;;
31182;SDS011;17813;0.000;0.000;2023-06-04T00:56:59;5.00;;;3.60;;
31182;SDS011;17813;0.000;0.000;2023-06-04T00:59:39;5.00;;;3.77;;
31182;SDS011;17813;0.000;0.000;2023-06-04T01:02:23;5.40;;;3.97;;
31182;SDS011;17813;0.000;0.000;2023-06-04T01:05:17;5.00;;;3.90;;
31182;SDS011;17813;0.000;0.000;2023-06-04T01:07:56;6.47;;;3.90;;
31182;SDS011;17813;0.000;0.000;2023-06-04T01:10:30;4.07;;;3.67;;
31182;SDS011;17813;0.000;0.000;2023-06-04T01:13:03;4.40;;;3.60;;
31182;SDS011;17813;0.000;0.000;2023-06-04T01:15:32;4.70;;;3.53;;
31182;SDS011;17813;0.000;0.000;2023-06-04T01:18:03;3.80;;;3.40;;
31182;SDS011;17813;0.000;0.000;2023-06-04T01:20:36;5.17;;;3.60;;
31182;SDS011;17813;0.000;0.000;2023-06-04T01:26:16;4.40;;;3.40;;
31182;SDS011;17813;0.000;0.000;2023-06-04T01:28:48;4.80;;;3.60;;
31182;SDS011;17813;0.000;0.000;2023-06-04T01:31:23;3.97;;;3.50;;
31182;SDS011;17813;0.000;0.000;2023-06-04T01:33:59;4.30;;;3.57;;
31182;SDS011;17813;0.000;0.000;2023-06-04T01:36:34;5.10;;;3.77;;
31182;SDS011;17813;0.000;0.000;2023-06-04T01:39:09;4.50;;;4.00;;
31182;SDS011;17813;0.000;0.000;2023-06-04T01:41:45;4.80;;;3.80;;
31182;SDS011;17813;0.000;0.000;2023-06-04T01:44:18;4.60;;;3.90;;
31182;SDS011;17813;0.000;0.000;2023-06-04T02:46:55;4.00;;;3.60;;
31182;SDS011;17813;0.000;0.000;2023-06-04T02:49:29;4.77;;;3.60;;
31182;SDS011;17813;0.000;0.000;2023-06-04T02:52:02;4.00;;;3.57;;
31182;SDS011;17813;0.000;0.000;2023-06-04T02:54:39;3.90;;;3.50;;
31182;SDS011;17813;0.000;0.000;2023-06-04T02:57:10;4.60;;;3.63;;
31182;SDS011;17813;0.000;0.000;2023-06-04T02:59:41;3.67;;;3.30;;
31182;SDS011;17813;0.000;0.000;2023-06-04T03:02:11;5.03;;;3.43;;
31182;SDS011;17813;0.000;0.000;2023-06-04T03:04:41;6.10;;;3.70;;
31182;SDS011;17813;0.000;0.000;2023-06-04T03:07:18;6.53;;;3.87;;
31182;SDS011;17813;0.000;0.000;2023-06-04T03:09:47;4.53;;;3.80;;
31182;SDS011;17813;0.000;0.000;2023-06-04T03:12:26;6.27;;;3.83;;
31182;SDS011;17813;0.000;0.000;2023-06-04T03:14:58;3.77;;;3.47;;
31182;SDS011;17813;0.000;0.000;2023-06-04T03:17:27;7.03;;;3.70;;
31182;SDS011;17813;0.000;0.000;2023-06-04T03:20:01;4.07;;;3.67;;
31182;SDS011;17813;0.000;0.000;2023-06-04T03:22:36;4.47;;;3.57;;
31182;SDS011;17813;0.000;0.000;2023-06-04T03:25:12;4.97;;;3.33;;
31182;SDS011;17813;0.000;0.000;2023-06-04T03:27:47;3.73;;;3.00;;
31182;SDS011;17813;0.000;0.000;2023-06-04T03:30:20;3.80;;;3.17;;
31182;SDS011;17813;0.000;0.000;2023-06-04T03:32:57;3.67;;;3.20;;
31182;SDS011;17813;0.000;0.000;2023-06-04T03:35:25;3.97;;;3.20;;
31182;SDS011;17813;0.000;0.000;2023-06-04T03:37:56;3.23;;;2.90;;
31182;SDS011;17813;0.000;0.000;2023-06-04T03:40:33;4.80;;;3.03;;
31182;SDS011;17813;0.000;0.000;2023-06-04T03:43:04;4.53;;;2.80;;
31182;SDS011;17813;0.000;0.000;2023-06-04T03:45:38;3.30;;;3.00;;
31182;SDS011;17813;0.000;0.000;2023-06-04T06:49:23;2.72;;;2.45;;
31182;SDS011;17813;0.000;0.000;2023-06-04T06:51:58;3.75;;;2.67;;
31182;SDS011;17813;0.000;0.000;2023-06-04T06:54:31;2.67;;;2.30;;
31182;SDS011;17813;0.000;0.000;2023-06-04T06:57:05;5.72;;;2.55;;
31182;SDS011;17813;0.000;0.000;2023-06-04T06:59:42;3.50;;;2.60;;
31182;SDS011;17813;0.000;0.000;2023-06-04T07:02:14;3.40;;;2.30;;
31182;SDS011;17813;0.000;0.000;2023-06-04T07:04:48;2.78;;;2.40;;
31182;SDS011;17813;0.000;0.000;2023-06-04T07:07:29;3.28;;;2.40;;
31182;SDS011;17813;0.000;0.000;2023-06-04T07:09:58;2.80;;;2.60;;
31182;SDS011;17813;0.000;0.000;2023-06-04T07:12:27;3.33;;;2.40;;
31182;SDS011;17813;0.000;0.000;2023-06-04T07:15:04;2.65;;;2.42;;
31182;SDS011;17813;0.000;0.000;2023-06-04T07:17:37;2.60;;;2.40;;
31182;SDS011;17813;0.000;0.000;2023-06-04T07:20:22;3.67;;;2.20;;
31182;SDS011;17813;0.000;0.000;2023-06-04T07:22:57;2.40;;;2.20;;
31182;SDS011;17813;0.000;0.000;2023-06-04T07:25:41;2.60;;;2.35;;
31182;SDS011;17813;0.000;0.000;2023-06-04T07:28:17;2.95;;;2.60;;
31182;SDS011;17813;0.000;0.000;2023-06-04T07:30:56;4.05;;;2.40;;
31182;SDS011;17813;0.000;0.000;2023-06-04T07:33:30;2.45;;;2.25;;
31182;SDS011;17813;0.000;0.000;2023-06-04T07:36:05;2.30;;;2.10;;
31182;SDS011;17813;0.000;0.000;2023-06-04T07:38:40;2.80;;;2.42;;
31182;SDS011;17813;0.000;0.000;2023-06-04T07:41:11;2.35;;;2.10;;
31182;SDS011;17813;0.000;0.000;2023-06-04T07:43:45;2.80;;;1.92;;
31182;SDS011;17813;0.000;0.000;2023-06-04T07:46:17;2.95;;;2.00;;
31182;SDS011;17813;0.000;0.000;2023-06-04T07:48:53;1.80;;;1.70;;
31182;SDS011;17813;0.000;0.000;2023-06-04T07:51:27;1.83;;;1.70;;
31182;SDS011;17813;0.000;0.000;2023-06-04T07:54:00;1.83;;;1.70;;
31182;SDS011;17813;0.000;0.000;2023-06-04T07:56:32;1.98;;;1.60;;
31182;SDS011;17813;0.000;0.000;2023-06-04T07:59:00;1.60;;;1.50;;
31182;SDS011;17813;0.000;0.000;2023-06-04T08:01:43;1.55;;;1.40;;
31182;SDS011;17813;0.000;0.000;2023-06-04T08:04:14;2.47;;;1.60;;
31182;SDS011;17813;0.000;0.000;2023-06-04T08:06:46;1.92;;;1.50;;
31182;SDS011;17813;0.000;0.000;2023-06-04T08:09:23;1.58;;;1.48;;
31182;SDS011;17813;0.000;0.000;2023-06-04T08:12:13;2.20;;;1.60;;
31182;SDS011;17813;0.000;0.000;2023-06-04T08:14:49;1.50;;;1.40;;
31182;SDS011;17813;0.000;0.000;2023-06-04T08:17:32;1.83;;;1.60;;
31182;SDS011;17813;0.000;0.000;2023-06-04T08:20:05;1.75;;;1.60;;
31182;SDS011;17813;0.000;0.000;2023-06-04T08:22:48;1.90;;;1.42;;
31182;SDS011;17813;0.000;0.000;2023-06-04T08:25:22;2.38;;;1.50;;
31182;SDS011;17813;0.000;0.000;2023-06-04T08:27:52;2.08;;;1.60;;
31182;SDS011;17813;0.000;0.000;2023-06-04T08:30:29;2.05;;;1.50;;
31182;SDS011;17813;0.000;0.000;2023-06-04T08:33:06;3.10;;;1.90;;
31182;SDS011;17813;0.000;0.000;2023-06-04T08:35:49;2.55;;;1.65;;
31182;SDS011;17813;0.000;0.000;2023-06-04T08:38:24;2.63;;;1.50;;
31182;SDS011;17813;0.000;0.000;2023-06-04T08:41:13;1.70;;;1.60;;
31182;SDS011;17813;0.000;0.000;2023-06-04T08:44:07;2.33;;;1.50;;
31182;SDS011;17813;0.000;0.000;2023-06-04T08:46:39;4.05;;;1.73;;
31182;SDS011;17813;0.000;0.000;2023-06-04T08:49:15;2.42;;;1.70;;
31182;SDS011;17813;0.000;0.000;2023-06-04T08:51:55;3.42;;;1.67;;
31182;SDS011;17813;0.000;0.000;2023-06-04T08:54:29;3.15;;;1.80;;
31182;SDS011;17813;0.000;0.000;2023-06-04T08:57:09;1.60;;;1.50;;
31182;SDS011;17813;0.000;0.000;2023-06-04T08:59:48;3.05;;;1.80;;
31182;SDS011;17813;0.000;0.000;2023-06-04T09:02:20;1.70;;;1.60;;
31182;SDS011;17813;0.000;0.000;2023-06-04T09:04:55;2.90;;;2.00;;
31182;SDS011;17813;0.000;0.000;2023-06-04T09:07:28;3.42;;;1.65;;
31182;SDS011;17813;0.000;0.000;2023-06-04T09:10:09;1.70;;;1.60;;
31182;SDS011;17813;0.000;0.000;2023-06-04T09:12:43;1.70;;;1.50;;
31182;SDS011;17813;0.000;0.000;2023-06-04T09:15:20;1.45;;;1.35;;
31182;SDS011;17813;0.000;0.000;2023-06-04T09:17:58;2.10;;;1.50;;
31182;SDS011;17813;0.000;0.000;2023-06-04T09:20:33;5.00;;;1.77;;
31182;SDS011;17813;0.000;0.000;2023-06-04T09:23:14;1.58;;;1.48;;
31182;SDS011;17813;0.000;0.000;2023-06-04T09:25:43;1.30;;;1.20;;
31182;SDS011;17813;0.000;0.000;2023-06-04T09:28:20;2.15;;;1.40;;
31182;SDS011;17813;0.000;0.000;2023-06-04T09:30:55;2.47;;;1.60;;
31182;SDS011;17813;0.000;0.000;2023-06-04T09:33:29;1.73;;;1.63;;
31182;SDS011;17813;0.000;0.000;2023-06-04T09:36:11;1.75;;;1.50;;
31182;SDS011;17813;0.000;0.000;2023-06-04T09:38:46;1.75;;;1.65;;
31182;SDS011;17813;0.000;0.000;2023-06-04T09:41:18;1.70;;;1.40;;
31182;SDS011;17813;0.000;0.000;2023-06-04T09:44:04;1.80;;;1.55;;
31182;SDS011;17813;0.000;0.000;2023-06-04T09:46:38;1.48;;;1.33;;
31182;SDS011;17813;0.000;0.000;2023-06-04T10:50:30;2.10;;;1.40;;
31182;SDS011;17813;0.000;0.000;2023-06-04T10:53:11;2.05;;;1.20;;
31182;SDS011;17813;0.000;0.000;2023-06-04T10:55:44;2.40;;;1.35;;
31182;SDS011;17813;0.000;0.000;2023-06-04T10:58:31;1.48;;;1.38;;
31182;SDS011;17813;0.000;0.000;2023-06-04T11:01:05;1.70;;;1.00;;
31182;SDS011;17813;0.000;0.000;2023-06-04T11:03:36;1.45;;;1.33;;
31182;SDS011;17813;0.000;0.000;2023-06-04T11:06:23;2.22;;;1.42;;
31182;SDS011;17813;0.000;0.000;2023-06-04T11:09:04;1.88;;;1.30;;
31182;SDS011;17813;0.000;0.000;2023-06-04T11:11:37;1.40;;;1.25;;
31182;SDS011;17813;0.000;0.000;2023-06-04T11:14:10;1.30;;;1.20;;
31182;SDS011;17813;0.000;0.000;2023-06-04T11:16:55;2.53;;;1.30;;
31182;SDS011;17813;0.000;0.000;2023-06-04T11:19:36;2.13;;;1.30;;
31182;SDS011;17813;0.000;0.000;2023-06-04T11:22:10;1.60;;;1.50;;
31182;SDS011;17813;0.000;0.000;2023-06-04T11:24:43;1.88;;;1.50;;
31182;SDS011;17813;0.000;0.000;2023-06-04T11:27:24;1.77;;;1.40;;
31182;SDS011;17813;0.000;0.000;2023-06-04T11:29:56;1.17;;;1.13;;
31182;SDS011;17813;0.000;0.000;2023-06-04T11:32:36;1.45;;;1.20;;
31182;SDS011;17813;0.000;0.000;2023-06-04T11:35:09;2.25;;;1.30;;
31182;SDS011;17813;0.000;0.000;2023-06-04T11:37:52;1.88;;;1.40;;
31182;SDS011;17813;0.000;0.000;2023-06-04T11:40:35;2.33;;;1.30;;
31182;SDS011;17813;0.000;0.000;2023-06-04T11:43:12;1.45;;;1.25;;
31182;SDS011;17813;0.000;0.000;2023-06-04T11:45:40;1.35;;;1.25;;
31182;SDS011;17813;0.000;0.000;2023-06-04T11:48:10;1.30;;;1.20;;
31182;SDS011;17813;0.000;0.000;2023-06-04T12:51:57;1.42;;;1.33;;
31182;SDS011;17813;0.000;0.000;2023-06-04T12:54:44;1.52;;;1.13;;
31182;SDS011;17813;0.000;0.000;2023-06-04T12:57:21;1.40;;;1.30;;
31182;SDS011;17813;0.000;0.000;2023-06-04T12:59:54;1.55;;;1.30;;
31182;SDS011;17813;0.000;0.000;2023-06-04T13:02:27;1.25;;;1.15;;
31182;SDS011;17813;0.000;0.000;2023-06-04T13:05:05;2.50;;;1.45;;
31182;SDS011;17813;0.000;0.000;2023-06-04T13:07:42;2.63;;;1.35;;
31182;SDS011;17813;0.000;0.000;2023-06-04T13:10:13;1.58;;;1.30;;
31182;SDS011;17813;0.000;0.000;2023-06-04T13:12:47;1.50;;;1.40;;
31182;SDS011;17813;0.000;0.000;2023-06-04T13:15:22;1.70;;;1.30;;
31182;SDS011;17813;0.000;0.000;2023-06-04T13:17:52;1.98;;;1.45;;
31182;SDS011;17813;0.000;0.000;2023-06-04T13:20:27;3.78;;;1.40;;
31182;SDS011;17813;0.000;0.000;2023-06-04T13:23:14;1.90;;;1.50;;
31182;SDS011;17813;0.000;0.000;2023-06-04T13:25:47;1.40;;;1.20;;
31182;SDS011;17813;0.000;0.000;2023-06-04T13:28:16;2.08;;;1.40;;
31182;SDS011;17813;0.000;0.000;2023-06-04T13:30:57;2.30;;;1.40;;
31182;SDS011;17813;0.000;0.000;2023-06-04T13:33:34;1.77;;;1.30;;
31182;SDS011;17813;0.000;0.000;2023-06-04T13:36:15;2.65;;;1.55;;
31182;SDS011;17813;0.000;0.000;2023-06-04T13:38:45;1.98;;;1.40;;
31182;SDS011;17813;0.000;0.000;2023-06-04T13:41:27;1.42;;;1.20;;
31182;SDS011;17813;0.000;0.000;2023-06-04T13:44:07;2.08;;;1.50;;
31182;SDS011;17813;0.000;0.000;2023-06-04T13:46:43;1.58;;;1.48;;
31182;SDS011;17813;0.000;0.000;2023-06-04T13:49:20;2.60;;;1.42;;
31182;SDS011;17813;0.000;0.000;2023-06-04T13:52:00;1.45;;;1.35;;
31182;SDS011;17813;0.000;0.000;2023-06-04T13:54:34;1.40;;;1.30;;
31182;SDS011;17813;0.000;0.000;2023-06-04T13:57:15;1.90;;;1.38;;
31182;SDS011;17813;0.000;0.000;2023-06-04T13:59:54;1.88;;;1.40;;
31182;SDS011;17813;0.000;0.000;2023-06-04T14:02:34;1.60;;;1.50;;
31182;SDS011;17813;0.000;0.000;2023-06-04T14:05:17;1.65;;;1.50;;
31182;SDS011;17813;0.000;0.000;2023-06-04T14:07:59;1.50;;;1.40;;
31182;SDS011;17813;0.000;0.000;2023-06-04T14:10:46;1.27;;;1.17;;
31182;SDS011;17813;0.000;0.000;2023-06-04T14:13:24;1.50;;;1.40;;
31182;SDS011;17813;0.000;0.000;2023-06-04T14:15:58;1.92;;;1.20;;
31182;SDS011;17813;0.000;0.000;2023-06-04T14:18:38;1.40;;;1.30;;
31182;SDS011;17813;0.000;0.000;2023-06-04T14:21:10;1.73;;;1.25;;
31182;SDS011;17813;0.000;0.000;2023-06-04T14:23:47;1.25;;;1.15;;
31182;SDS011;17813;0.000;0.000;2023-06-04T14:26:18;1.35;;;1.25;;
31182;SDS011;17813;0.000;0.000;2023-06-04T14:28:47;2.60;;;1.70;;
31182;SDS011;17813;0.000;0.000;2023-06-04T14:31:25;1.45;;;1.35;;
31182;SDS011;17813;0.000;0.000;2023-06-04T14:34:09;2.35;;;1.60;;
31182;SDS011;17813;0.000;0.000;2023-06-04T14:36:51;3.40;;;1.60;;
31182;SDS011;17813;0.000;0.000;2023-06-04T14:39:31;1.80;;;1.50;;
31182;SDS011;17813;0.000;0.000;2023-06-04T14:42:08;2.30;;;1.60;;
31182;SDS011;17813;0.000;0.000;2023-06-04T14:44:38;2.33;;;1.90;;
31182;SDS011;17813;0.000;0.000;2023-06-04T14:47:23;2.00;;;1.60;;
31182;SDS011;17813;0.000;0.000;2023-06-04T14:49:57;2.95;;;1.58;;
31182;SDS011;17813;0.000;0.000;2023-06-04T14:52:33;2.60;;;1.50;;
31182;SDS011;17813;0.000;0.000;2023-06-04T14:55:24;1.60;;;1.50;;
31182;SDS011;17813;0.000;0.000;2023-06-04T14:58:05;2.08;;;1.30;;
31182;SDS011;17813;0.000;0.000;2023-06-04T15:00:39;2.15;;;1.45;;
31182;SDS011;17813;0.000;0.000;2023-06-04T15:03:18;1.73;;;1.30;;
31182;SDS011;17813;0.000;0.000;2023-06-04T15:05:56;1.50;;;1.30;;
31182;SDS011;17813;0.000;0.000;2023-06-04T15:08:38;2.65;;;1.40;;
31182;SDS011;17813;0.000;0.000;2023-06-04T15:11:14;1.20;;;1.13;;
31182;SDS011;17813;0.000;0.000;2023-06-04T15:14:00;2.05;;;1.50;;
31182;SDS011;17813;0.000;0.000;2023-06-04T15:16:39;1.65;;;1.50;;
31182;SDS011;17813;0.000;0.000;2023-06-04T15:19:23;1.65;;;1.50;;
31182;SDS011;17813;0.000;0.000;2023-06-04T15:22:07;1.73;;;1.40;;
31182;SDS011;17813;0.000;0.000;2023-06-04T15:24:49;2.03;;;1.40;;
31182;SDS011;17813;0.000;0.000;2023-06-04T15:27:26;2.15;;;1.40;;
31182;SDS011;17813;0.000;0.000;2023-06-04T15:29:55;3.35;;;1.60;;
31182;SDS011;17813;0.000;0.000;2023-06-04T15:32:25;1.83;;;1.50;;
31182;SDS011;17813;0.000;0.000;2023-06-04T15:34:58;1.50;;;1.40;;
31182;SDS011;17813;0.000;0.000;2023-06-04T15:37:33;2.65;;;1.35;;
31182;SDS011;17813;0.000;0.000;2023-06-04T15:40:12;1.63;;;1.50;;
31182;SDS011;17813;0.000;0.000;2023-06-04T15:42:43;3.15;;;1.35;;
31182;SDS011;17813;0.000;0.000;2023-06-04T15:45:22;2.90;;;1.65;;
31182;SDS011;17813;0.000;0.000;2023-06-04T15:47:55;1.98;;;1.40;;
31182;SDS011;17813;0.000;0.000;2023-06-04T16:51:13;2.30;;;1.50;;
31182;SDS011;17813;0.000;0.000;2023-06-04T16:53:40;2.22;;;1.35;;
31182;SDS011;17813;0.000;0.000;2023-06-04T16:56:07;1.77;;;1.52;;
31182;SDS011;17813;0.000;0.000;2023-06-04T16:58:37;2.13;;;1.50;;
31182;SDS011;17813;0.000;0.000;2023-06-04T17:01:05;2.00;;;1.50;;
31182;SDS011;17813;0.000;0.000;2023-06-04T17:03:35;1.70;;;1.60;;
31182;SDS011;17813;0.000;0.000;2023-06-04T17:06:03;1.85;;;1.50;;
31182;SDS011;17813;0.000;0.000;2023-06-04T17:08:30;1.58;;;1.48;;
31182;SDS011;17813;0.000;0.000;2023-06-04T17:10:57;1.88;;;1.77;;
31182;SDS011;17813;0.000;0.000;2023-06-04T17:13:26;2.42;;;1.80;;
31182;SDS011;17813;0.000;0.000;2023-06-04T17:15:55;1.50;;;1.40;;
31182;SDS011;17813;0.000;0.000;2023-06-04T17:29:50;1.80;;;1.70;;
31182;SDS011;17813;0.000;0.000;2023-06-04T17:32:19;2.30;;;1.50;;
31182;SDS011;17813;0.000;0.000;2023-06-04T17:34:47;2.00;;;1.65;;
31182;SDS011;17813;0.000;0.000;2023-06-04T17:37:15;1.85;;;1.67;;
31182;SDS011;17813;0.000;0.000;2023-06-04T17:39:42;1.50;;;1.40;;
31182;SDS011;17813;0.000;0.000;2023-06-04T17:42:10;3.35;;;1.90;;
31182;SDS011;17813;0.000;0.000;2023-06-04T17:44:37;2.05;;;1.58;;
31182;SDS011;17813;0.000;0.000;2023-06-04T17:47:04;1.65;;;1.52;;
31182;SDS011;17813;0.000;0.000;2023-06-04T17:49:31;2.20;;;1.60;;
31182;SDS011;17813;0.000;0.000;2023-06-04T18:53:40;6.80;;;5.00;;
31182;SDS011;17813;0.000;0.000;2023-06-04T18:56:07;4.50;;;3.90;;
31182;SDS011;17813;0.000;0.000;2023-06-04T18:58:35;7.47;;;5.70;;
31182;SDS011;17813;0.000;0.000;2023-06-04T19:01:02;15.20;;;11.57;;
31182;SDS011;17813;0.000;0.000;2023-06-04T19:03:29;26.03;;;18.67;;
31182;SDS011;17813;0.000;0.000;2023-06-04T19:05:56;13.53;;;9.73;;
31182;SDS011;17813;0.000;0.000;2023-06-04T19:08:23;24.70;;;17.73;;
31182;SDS011;17813;0.000;0.000;2023-06-04T19:10:50;27.20;;;21.47;;
31182;SDS011;17813;0.000;0.000;2023-06-04T19:13:18;32.40;;;26.03;;
31182;SDS011;17813;0.000;0.000;2023-06-04T19:15:45;29.47;;;24.10;;
31182;SDS011;17813;0.000;0.000;2023-06-04T19:18:16;21.17;;;17.27;;
31182;SDS011;17813;0.000;0.000;2023-06-04T19:20:43;17.77;;;13.73;;
31182;SDS011;17813;0.000;0.000;2023-06-04T19:23:10;11.83;;;10.27;;
31182;SDS011;17813;0.000;0.000;2023-06-04T19:25:37;9.93;;;8.30;;
31182;SDS011;17813;0.000;0.000;2023-06-04T19:28:05;8.80;;;7.07;;
31182;SDS011;17813;0.000;0.000;2023-06-04T19:30:32;6.40;;;5.43;;
31182;SDS011;17813;0.000;0.000;2023-06-04T19:32:58;7.20;;;4.97;;
31182;SDS011;17813;0.000;0.000;2023-06-04T19:35:31;6.20;;;4.70;;
31182;SDS011;17813;0.000;0.000;2023-06-04T19:38:00;5.00;;;4.20;;
31182;SDS011;17813;0.000;0.000;2023-06-04T19:40:28;3.70;;;2.87;;
31182;SDS011;17813;0.000;0.000;2023-06-04T19:42:56;4.43;;;3.00;;
31182;SDS011;17813;0.000;0.000;2023-06-04T19:45:23;2.83;;;2.47;;
31182;SDS011;17813;0.000;0.000;2023-06-04T19:47:51;3.57;;;2.20;;
31182;SDS011;17813;0.000;0.000;2023-06-04T19:50:18;3.17;;;2.17;;
31182;SDS011;17813;0.000;0.000;2023-06-04T20:51:26;3.30;;;2.60;;
31182;SDS011;17813;0.000;0.000;2023-06-04T20:53:53;3.67;;;2.57;;
31182;SDS011;17813;0.000;0.000;2023-06-04T20:56:20;5.33;;;2.60;;
31182;SDS011;17813;0.000;0.000;2023-06-04T20:58:49;6.47;;;2.47;;
31182;SDS011;17813;0.000;0.000;2023-06-04T21:01:16;2.93;;;2.20;;
31182;SDS011;17813;0.000;0.000;2023-06-04T21:03:43;6.53;;;2.43;;
31182;SDS011;17813;0.000;0.000;2023-06-04T21:06:10;2.43;;;2.23;;
31182;SDS011;17813;0.000;0.000;2023-06-04T21:08:37;3.67;;;2.20;;
31182;SDS011;17813;0.000;0.000;2023-06-04T21:11:04;3.00;;;2.17;;
31182;SDS011;17813;0.000;0.000;2023-06-04T21:13:31;2.27;;;2.07;;
31182;SDS011;17813;0.000;0.000;2023-06-04T21:15:59;3.20;;;1.90;;
31182;SDS011;17813;0.000;0.000;2023-06-04T21:18:26;2.37;;;2.13;;
31182;SDS011;17813;0.000;0.000;2023-06-04T21:20:53;3.20;;;2.20;;
31182;SDS011;17813;0.000;0.000;2023-06-04T21:23:20;2.87;;;2.43;;
31182;SDS011;17813;0.000;0.000;2023-06-04T21:25:47;2.97;;;2.10;;
31182;SDS011;17813;0.000;0.000;2023-06-04T21:28:15;2.80;;;1.93;;
31182;SDS011;17813;0.000;0.000;2023-06-04T21:30:42;2.77;;;2.10;;
31182;SDS011;17813;0.000;0.000;2023-06-04T21:33:09;2.67;;;2.23;;
31182;SDS011;17813;0.000;0.000;2023-06-04T21:35:35;2.57;;;2.17;;
31182;SDS011;17813;0.000;0.000;2023-06-04T21:38:03;2.40;;;1.80;;
31182;SDS011;17813;0.000;0.000;2023-06-04T21:40:29;2.37;;;2.10;;
31182;SDS011;17813;0.000;0.000;2023-06-04T21:42:56;2.20;;;2.00;;
31182;SDS011;17813;0.000;0.000;2023-06-04T21:45:23;3.87;;;2.10;;
31182;SDS011;17813;0.000;0.000;2023-06-04T21:47:50;4.10;;;2.70;;
31182;SDS011;17813;0.000;0.000;2023-06-04T21:50:17;2.77;;;2.20;;
